AIRPORT ID: KREI

DATE: 2024-06-16 ZULU TIME: 15.55 LOCAL TIME: 8.55


METAR KREI 161555Z AUTO 26004KT 10SM 23/08 A2979

ALTIMETER: A2979 Q1009

DENSITY ALT: 2900 Ft

WIND DIRECT: 270

WIND SPEED: 4 Gust

WIND CONDITIONS:

VISIBILTY: 10SM 9999M

TEMPERATURE: 74 F 23 C

DEW POINT: 46 F 8 C

HUMID: 37%

LCL: Above 5,000 feet

RADIO CHECK: 0

ADVISARIES: 3

GREETINGS: 1

CONVERSATIONS: 41